Carlisle, Ohio
Current Conditions -  °F | °C
As of 12:53 PM on Thursday 23 Oct 2014 (Local Time) from KMGY Reporting Station
Clear Clear  
Wind Chill: 55°   Ceiling: Unl
Heat Index: 55°   Visibility: 10mi
Dew Point: 41°   Wind: 5mph
Humidity: 59%   Direction: 350°N
Pressure: 30.22"   Gusts: NA
Location:  39.5216°N, 84.2838°W
Report Text: KMGY 231653Z AUTO 35004KT 10SM CLR 13/05 A3022 RMK AO2 SLP237 T01280050
Loading
Personal Weather Stations






























Interactive Weather Map
Tropical Storm Tracking
New forecast layout! Learn more

10-Day Weather Forecast

Advertisements
Track Severe Weather on mobile